Fecha, hora, temperatura, viento dirección y velocidad, humedad y presión.

  • 16-01-2019 16:00:00 | 11.50°C | Sur |14.00 km/h | 53.00% | 948.70 hPa
  • 16-01-2019 15:00:00 | 10.50°C | Sudoeste |13.00 km/h | 56.00% | 949.10 hPa
  • 16-01-2019 14:00:00 | 9.80°C | Sur |12.00 km/h | 58.00% | 949.60 hPa
  • 16-01-2019 13:00:00 | 8.00°C | Sudeste |5.00 km/h | 61.00% | 950.50 hPa
  • 16-01-2019 12:00:00 | 5.40°C | Sur |5.00 km/h | 70.00% | 951.50 hPa
  • 16-01-2019 11:00:00 | 1.60°C | Norte |4.00 km/h | 80.00% | 951.80 hPa
  • 16-01-2019 10:00:00 | -1.20°C | Norte |4.00 km/h | 88.00% | 951.60 hPa
  • 16-01-2019 09:00:00 | -3.20°C | Norte |5.00 km/h | 93.00% | 951.30 hPa
  • 16-01-2019 08:00:00 | -3.20°C | Norte |5.00 km/h | 93.00% | 951.20 hPa
  • 16-01-2019 07:00:00 | -2.80°C | Norte |5.00 km/h | 93.00% | 951.10 hPa
  • 16-01-2019 06:00:00 | -2.50°C | Norte |8.00 km/h | 93.00% | 951.10 hPa
  • 16-01-2019 05:00:00 | -2.30°C | Noroeste |4.00 km/h | 92.00% | 951.30 hPa
  • 16-01-2019 04:00:00 | -2.10°C | Norte |3.00 km/h | 91.00% | 951.60 hPa
  • 16-01-2019 03:00:00 | -1.20°C | Norte |7.00 km/h | 90.00% | 951.70 hPa
  • 16-01-2019 02:00:00 | -0.40°C | 0 |0.00 km/h | 88.00% | 951.70 hPa
  • 16-01-2019 01:00:00 | 0.20°C | Norte |8.00 km/h | 85.00% | 952.10 hPa
  • 16-01-2019 00:00:00 | 0.90°C | Norte |9.00 km/h | 81.00% | 952.30 hPa
  • 15-01-2019 23:00:00 | 2.10°C | Norte |9.00 km/h | 77.00% | 952.20 hPa
  • 15-01-2019 22:00:00 | 2.60°C | Calma |0.00 km/h | 73.00% | 952.10 hPa
  • 15-01-2019 21:00:00 | 4.80°C | Calma |0.00 km/h | 65.00% | 952.00 hPa
  • 15-01-2019 20:00:00 | 5.50°C | Calma |0.00 km/h | 64.00% | 951.70 hPa
  • 15-01-2019 19:00:00 | 8.40°C | Este |3.00 km/h | 55.00% | 951.20 hPa
  • 15-01-2019 18:00:00 | 12.10°C | Sudoeste |4.00 km/h | 44.00% | 950.90 hPa
  • 15-01-2019 17:00:00 | 14.70°C | Sudoeste |4.00 km/h | 35.00% | 950.80 hPa
    • diseño web asturias Información sobre el estado de las mareas, altura de la marejada, temperatura del agua y otros datos de Gijón en Asturias.

      Surf Gijón